createdAt,value
2019-02-22T00:02:05.566Z,25.62
2019-02-22T00:04:37.231Z,24.15
2019-02-22T00:07:07.819Z,25.68
2019-02-22T00:09:48.830Z,25.23
2019-02-22T00:12:10.694Z,24.02
2019-02-22T00:14:41.296Z,24.30
2019-02-22T00:17:13.397Z,23.98
2019-02-22T00:19:45.157Z,24.37
2019-02-22T00:22:15.770Z,23.42
2019-02-22T00:24:46.443Z,23.22
2019-02-22T00:27:19.593Z,23.12
2019-02-22T00:29:51.151Z,24.85
2019-02-22T00:32:22.888Z,23.40
2019-02-22T00:34:53.502Z,26.80
2019-02-22T00:37:24.198Z,24.63
2019-02-22T00:39:54.712Z,25.55
2019-02-22T00:42:26.504Z,25.55
2019-02-22T00:44:58.543Z,25.75
2019-02-22T00:47:29.251Z,24.40
2019-02-22T00:49:59.830Z,24.35
2019-02-22T00:52:30.393Z,24.00
2019-02-22T00:55:00.983Z,24.47
2019-02-22T00:57:31.659Z,24.63
2019-02-22T01:00:02.422Z,22.93
2019-02-22T01:02:32.992Z,20.72
2019-02-22T01:05:03.603Z,21.60
2019-02-22T01:07:34.217Z,20.77
2019-02-22T01:10:06.659Z,21.13
2019-02-22T01:12:37.197Z,22.17
2019-02-22T01:15:08.031Z,22.45
2019-02-22T01:17:38.590Z,23.87
2019-02-22T01:20:09.495Z,23.60
2019-02-22T01:22:41.879Z,21.82
2019-02-22T01:25:14.695Z,23.62
2019-02-22T01:27:45.231Z,20.65
2019-02-22T01:30:15.829Z,21.83
2019-02-22T01:32:46.386Z,20.80
2019-02-22T01:35:16.992Z,23.10
2019-02-22T01:37:47.550Z,21.85
2019-02-22T01:40:18.137Z,20.17
2019-02-22T01:42:50.180Z,21.97
2019-02-22T01:45:20.781Z,21.30
2019-02-22T01:47:51.333Z,21.77
2019-02-22T01:50:26.003Z,19.62
2019-02-22T01:52:57.772Z,19.62
2019-02-22T01:55:29.355Z,20.00
2019-02-22T01:57:59.947Z,20.85
2019-02-22T02:00:30.562Z,18.90
2019-02-22T02:03:01.262Z,18.65
2019-02-22T02:05:31.838Z,17.65
2019-02-22T02:08:02.403Z,17.32
2019-02-22T02:10:33.000Z,17.65
2019-02-22T02:13:03.640Z,17.77
2019-02-22T02:15:35.429Z,19.50
2019-02-22T02:18:06.032Z,18.52
2019-02-22T02:20:37.607Z,20.10
2019-02-22T02:23:08.209Z,19.60
2019-02-22T02:25:38.813Z,19.10
2019-02-22T02:28:09.362Z,18.50
2019-02-22T02:30:41.118Z,19.90
2019-02-22T02:33:11.755Z,20.17
2019-02-22T02:35:42.451Z,20.35
2019-02-22T02:38:13.028Z,20.20
2019-02-22T02:40:43.588Z,18.42
2019-02-22T02:43:14.159Z,19.23
2019-02-22T02:45:47.108Z,20.68
2019-02-22T02:48:17.727Z,20.40
2019-02-22T02:50:49.272Z,19.17
2019-02-22T02:53:19.853Z,18.60
2019-02-22T02:55:50.422Z,19.73
2019-02-22T02:58:21.253Z,18.50
2019-02-22T03:00:51.826Z,19.20
2019-02-22T03:03:23.512Z,17.57
2019-02-22T03:06:08.346Z,17.60
2019-02-22T03:08:38.920Z,17.62
2019-02-22T03:11:20.329Z,16.87
2019-02-22T03:13:42.107Z,15.93
2019-02-22T03:16:12.662Z,15.18
2019-02-22T03:18:43.268Z,15.88
2019-02-22T03:21:14.435Z,14.60
2019-02-22T03:23:46.112Z,15.20
2019-02-22T03:26:16.744Z,14.85
2019-02-22T03:28:47.368Z,13.30
2019-02-22T03:31:17.991Z,13.48
2019-02-22T03:33:48.676Z,14.73
2019-02-22T03:36:19.269Z,13.30
2019-02-22T03:38:49.874Z,13.25
2019-02-22T03:41:31.945Z,13.83
2019-02-22T03:43:52.841Z,11.55
2019-02-22T03:46:23.383Z,11.48
2019-02-22T03:48:53.955Z,11.38
2019-02-22T03:51:24.645Z,11.65
2019-02-22T03:54:00.908Z,11.95
2019-02-22T03:56:31.590Z,12.25
2019-02-22T03:59:02.305Z,11.60
2019-02-22T04:01:32.902Z,12.20
2019-02-22T04:04:03.523Z,11.25
2019-02-22T04:06:34.122Z,11.85
2019-02-22T04:09:10.034Z,11.03
2019-02-22T04:11:45.557Z,11.05
2019-02-22T04:14:14.374Z,11.60
2019-02-22T04:16:44.971Z,11.65
2019-02-22T04:19:15.591Z,10.58
2019-02-22T04:21:46.273Z,10.32
2019-02-22T04:24:16.823Z,9.65
2019-02-22T04:26:47.396Z,9.73
2019-02-22T04:29:17.957Z,8.70
2019-02-22T04:31:48.536Z,8.73
2019-02-22T04:34:19.070Z,7.97
2019-02-22T04:36:49.653Z,8.35
2019-02-22T04:39:21.671Z,7.87
2019-02-22T04:41:58.177Z,7.45
2019-02-22T04:44:25.609Z,6.47
2019-02-22T04:46:56.197Z,5.95
2019-02-22T04:49:26.783Z,5.90
2019-02-22T04:51:57.362Z,5.75
2019-02-22T04:54:27.923Z,6.22
2019-02-22T04:56:58.488Z,6.60
2019-02-22T04:59:29.099Z,6.45
2019-02-22T05:02:01.169Z,6.20
2019-02-22T05:04:31.723Z,6.22
2019-02-22T05:07:03.355Z,6.30
2019-02-22T05:09:35.099Z,6.08
2019-02-22T05:12:10.829Z,6.20
2019-02-22T05:14:39.903Z,7.17
2019-02-22T05:17:11.986Z,5.75
2019-02-22T05:19:42.534Z,5.97
2019-02-22T05:22:13.210Z,6.58
2019-02-22T05:24:43.762Z,5.67
2019-02-22T05:27:14.365Z,5.40
2019-02-22T05:29:44.913Z,5.80
2019-02-22T05:32:15.583Z,5.10
2019-02-22T05:34:46.258Z,5.50
2019-02-22T05:37:16.827Z,5.15
2019-02-22T05:39:47.416Z,5.83
2019-02-22T05:42:22.996Z,6.72
2019-02-22T05:44:51.390Z,5.33
2019-02-22T05:47:23.752Z,5.22
2019-02-22T05:49:55.438Z,5.80
2019-02-22T05:52:27.091Z,5.33
2019-02-22T05:54:58.659Z,5.28
2019-02-22T05:57:29.277Z,5.10
2019-02-22T05:59:59.982Z,4.22
2019-02-22T06:02:33.601Z,4.35
2019-02-22T06:05:04.695Z,3.72
2019-02-22T06:07:35.250Z,4.67
2019-02-22T06:10:06.216Z,4.30
2019-02-22T06:12:36.793Z,4.37
2019-02-22T06:15:07.896Z,3.65
2019-02-22T06:17:38.431Z,4.00
2019-02-22T06:20:09.405Z,4.47
2019-02-22T06:22:40.055Z,4.53
2019-02-22T06:25:10.662Z,3.80
2019-02-22T06:27:41.221Z,4.33
2019-02-22T06:30:11.793Z,4.20
2019-02-22T06:32:42.646Z,4.55
2019-02-22T06:35:13.422Z,4.35
2019-02-22T06:37:45.916Z,4.00
2019-02-22T06:40:16.507Z,4.62
2019-02-22T06:42:47.093Z,4.70
2019-02-22T06:45:21.296Z,4.87
2019-02-22T06:47:51.866Z,4.67
2019-02-22T06:50:33.148Z,4.90
2019-02-22T06:52:55.919Z,5.70
2019-02-22T06:55:26.555Z,5.15
2019-02-22T06:57:57.287Z,4.97
2019-02-22T07:00:29.422Z,5.35
2019-02-22T07:02:59.998Z,5.90
2019-02-22T07:05:30.604Z,5.33
2019-02-22T07:08:01.264Z,5.87
2019-02-22T07:10:50.743Z,6.35
2019-02-22T07:13:21.533Z,6.00
2019-02-22T07:15:52.096Z,5.40
2019-02-22T07:18:22.703Z,5.07
2019-02-22T07:20:53.256Z,6.10
2019-02-22T07:23:23.869Z,5.40
2019-02-22T07:25:55.668Z,5.87
2019-02-22T07:28:27.383Z,6.40
2019-02-22T07:30:57.942Z,5.47
2019-02-22T07:33:28.501Z,5.03
2019-02-22T07:36:00.222Z,5.80
2019-02-22T07:38:30.810Z,5.60
2019-02-22T07:41:01.354Z,5.53
2019-02-22T07:43:31.937Z,5.37
2019-02-22T07:46:02.496Z,5.62
2019-02-22T07:48:33.112Z,5.28
2019-02-22T07:51:05.463Z,5.90
2019-02-22T07:53:36.105Z,5.30
2019-02-22T07:56:06.655Z,5.30
2019-02-22T07:58:38.376Z,6.03
2019-02-22T08:01:09.037Z,8.58
2019-02-22T08:03:39.612Z,8.80
2019-02-22T08:06:10.180Z,8.45
2019-02-22T08:08:40.776Z,8.60
2019-02-22T08:11:11.487Z,8.48
2019-02-22T08:13:43.848Z,9.50
2019-02-22T08:16:14.452Z,8.65
2019-02-22T08:18:47.472Z,8.78
2019-02-22T08:21:18.149Z,8.83
2019-02-22T08:23:48.772Z,8.60
2019-02-22T08:26:19.429Z,7.67
2019-02-22T08:28:50.077Z,6.90
2019-02-22T08:31:20.751Z,6.83
2019-02-22T08:33:51.555Z,6.95
2019-02-22T08:36:22.199Z,6.30
2019-02-22T08:38:55.858Z,7.23
2019-02-22T08:41:27.572Z,6.30
2019-02-22T08:43:58.270Z,5.65
2019-02-22T08:46:28.878Z,5.73
2019-02-22T08:48:59.467Z,5.50
2019-02-22T08:51:30.163Z,5.45
2019-02-22T08:54:02.347Z,4.90
2019-02-22T08:56:32.985Z,4.50
2019-02-22T08:59:03.572Z,4.92
2019-02-22T09:01:35.881Z,4.60
2019-02-22T09:04:06.570Z,4.28
2019-02-22T09:06:37.343Z,4.07
2019-02-22T09:09:08.027Z,3.98
2019-02-22T09:11:38.697Z,3.60
2019-02-22T09:14:09.238Z,3.07
2019-02-22T09:16:39.839Z,2.87
2019-02-22T09:19:10.386Z,2.35
2019-02-22T09:21:41.108Z,1.85
2019-02-22T09:24:11.652Z,1.37
2019-02-22T09:26:42.249Z,1.20
2019-02-22T09:29:12.823Z,1.20
2019-02-22T09:31:43.379Z,1.30
2019-02-22T09:34:15.781Z,1.70
2019-02-22T09:36:46.329Z,1.77
2019-02-22T09:39:16.879Z,2.93
2019-02-22T09:41:47.455Z,3.07
2019-02-22T09:44:19.508Z,2.27
2019-02-22T09:46:50.154Z,3.30
2019-02-22T09:49:20.777Z,3.03
2019-02-22T09:51:51.311Z,3.10
2019-02-22T09:54:22.096Z,4.08
2019-02-22T09:56:52.650Z,3.90
2019-02-22T09:59:23.506Z,4.30
2019-02-22T10:01:54.055Z,4.85
2019-02-22T10:04:24.764Z,3.77
2019-02-22T10:06:55.318Z,3.83
2019-02-22T10:09:27.715Z,4.90
2019-02-22T10:11:58.333Z,4.67
2019-02-22T10:14:28.934Z,5.50
2019-02-22T10:16:59.478Z,5.73
2019-02-22T10:19:30.175Z,6.70
2019-02-22T10:22:00.795Z,10.97
2019-02-22T10:24:31.723Z,33.10
2019-02-22T10:27:02.354Z,33.33
2019-02-22T10:29:33.318Z,17.03
2019-02-22T10:32:03.915Z,10.03
2019-02-22T10:34:34.589Z,6.80
2019-02-22T10:37:05.172Z,6.97
2019-02-22T10:39:35.749Z,7.03
2019-02-22T10:42:08.205Z,6.43
2019-02-22T10:44:39.085Z,5.67
2019-02-22T10:47:09.854Z,6.97
2019-02-22T10:49:59.535Z,6.63
2019-02-22T10:52:30.288Z,5.90
2019-02-22T10:55:00.942Z,6.53
2019-02-22T10:57:31.699Z,6.07
2019-02-22T11:00:02.481Z,6.90
2019-02-22T11:02:33.116Z,6.87
2019-02-22T11:05:03.687Z,6.93
2019-02-22T11:07:34.272Z,7.97
2019-02-22T11:10:07.191Z,8.47
2019-02-22T11:12:37.827Z,8.30
2019-02-22T11:15:12.114Z,9.03
2019-02-22T11:17:42.696Z,11.70
2019-02-22T11:20:14.021Z,7.63
2019-02-22T11:22:46.089Z,8.20
2019-02-22T11:25:19.097Z,8.17
2019-02-22T11:27:50.678Z,8.57
2019-02-22T11:30:21.338Z,9.90
2019-02-22T11:32:53.431Z,9.33
2019-02-22T11:35:25.097Z,8.60
2019-02-22T11:37:56.062Z,8.17
2019-02-22T11:40:27.024Z,7.43
2019-02-22T11:42:57.693Z,8.10
2019-02-22T11:45:28.246Z,8.37
2019-02-22T11:48:08.659Z,9.00
2019-02-22T11:50:31.525Z,8.17
2019-02-22T11:53:03.441Z,8.37
2019-02-22T11:55:35.301Z,7.73
2019-02-22T11:58:05.931Z,8.10
2019-02-22T12:00:37.876Z,6.80
2019-02-22T12:03:23.521Z,6.97
2019-02-22T12:05:41.870Z,7.40
2019-02-22T12:08:12.436Z,7.20
2019-02-22T12:10:42.975Z,7.03
2019-02-22T12:13:13.558Z,7.97
2019-02-22T12:15:45.593Z,6.40
2019-02-22T12:18:16.179Z,6.17
2019-02-22T12:20:48.225Z,7.13
2019-02-22T12:23:19.137Z,6.70
2019-02-22T12:25:49.691Z,6.50
2019-02-22T12:28:20.284Z,6.97
2019-02-22T12:30:51.935Z,7.57
2019-02-22T12:33:22.840Z,7.97
2019-02-22T12:35:53.473Z,8.33
2019-02-22T12:38:24.044Z,7.83
2019-02-22T12:40:56.103Z,9.60
2019-02-22T12:43:26.665Z,9.13
2019-02-22T12:45:57.242Z,8.93
2019-02-22T12:48:29.648Z,10.13
2019-02-22T12:51:00.214Z,10.03
2019-02-22T12:53:30.895Z,9.40
2019-02-22T12:56:02.603Z,9.90
2019-02-22T12:58:33.319Z,10.70
2019-02-22T13:01:03.989Z,12.63
2019-02-22T13:03:34.555Z,11.97
2019-02-22T13:06:05.204Z,12.00
2019-02-22T13:08:35.807Z,13.63
2019-02-22T13:11:06.444Z,12.47
2019-02-22T13:13:37.011Z,10.23
2019-02-22T13:16:09.108Z,11.47
2019-02-22T13:18:39.735Z,12.63
2019-02-22T13:21:10.320Z,10.90
2019-02-22T13:23:41.962Z,12.00
2019-02-22T13:26:13.729Z,13.00
2019-02-22T13:28:44.444Z,11.23
2019-02-22T13:31:15.053Z,11.10
2019-02-22T13:33:45.676Z,12.43
2019-02-22T13:36:16.302Z,12.47
2019-02-22T13:38:47.229Z,13.37
2019-02-22T13:41:17.865Z,12.67
2019-02-22T13:43:48.614Z,13.00
2019-02-22T13:46:21.729Z,13.37
2019-02-22T13:48:52.326Z,13.60
2019-02-22T13:51:23.016Z,14.10
2019-02-22T13:53:54.833Z,13.30
2019-02-22T13:56:29.614Z,12.53
2019-02-22T13:58:57.799Z,12.30
2019-02-22T14:01:28.411Z,12.30
2019-02-22T14:03:58.982Z,13.10
2019-02-22T14:06:29.869Z,13.13
2019-02-22T14:09:03.706Z,13.50
2019-02-22T14:11:38.691Z,13.63
2019-02-22T14:14:09.365Z,14.07
2019-02-22T14:16:40.632Z,13.37
2019-02-22T14:19:15.639Z,13.97
2019-02-22T14:21:49.714Z,14.67
2019-02-22T14:24:20.645Z,12.40
2019-02-22T14:26:51.489Z,11.43
2019-02-22T14:29:22.926Z,11.73
2019-02-22T14:31:53.803Z,12.43
2019-02-22T14:34:24.511Z,12.13
2019-02-22T14:36:58.371Z,12.20
2019-02-22T14:39:32.269Z,11.63
2019-02-22T14:42:04.703Z,11.30
2019-02-22T14:44:35.645Z,10.73
2019-02-22T14:47:07.363Z,9.53
2019-02-22T14:49:38.022Z,9.23
2019-02-22T14:52:08.634Z,8.70
2019-02-22T14:54:39.635Z,8.70
2019-02-22T14:57:10.491Z,10.03
2019-02-22T14:59:44.119Z,10.57
2019-02-22T15:02:15.268Z,9.67
2019-02-22T15:04:45.955Z,12.83
2019-02-22T15:07:16.647Z,13.73
2019-02-22T15:09:47.254Z,13.57
2019-02-22T15:12:25.956Z,12.60
2019-02-22T15:14:56.729Z,13.23
2019-02-22T15:17:30.678Z,12.40
2019-02-22T15:20:01.311Z,11.97
2019-02-22T15:22:31.941Z,11.50
2019-02-22T15:25:02.517Z,10.97
2019-02-22T15:27:33.123Z,11.07
2019-02-22T15:30:03.866Z,10.47
2019-02-22T15:32:35.936Z,9.83
2019-02-22T15:35:10.138Z,11.03
2019-02-22T15:37:43.352Z,10.00
2019-02-22T15:40:14.396Z,10.30
2019-02-22T15:42:45.092Z,10.10
2019-02-22T15:45:16.349Z,9.20
2019-02-22T15:47:48.823Z,9.97
2019-02-22T15:50:19.312Z,11.20
2019-02-22T15:52:50.639Z,11.03
2019-02-22T15:55:21.312Z,10.57
2019-02-22T15:57:54.469Z,10.30
2019-02-22T16:00:27.569Z,9.80
2019-02-22T16:02:58.469Z,9.63
2019-02-22T16:05:36.197Z,9.23
2019-02-22T16:08:07.918Z,8.90
2019-02-22T16:10:42.082Z,8.57
2019-02-22T16:13:12.720Z,8.13
2019-02-22T16:15:47.175Z,8.53
2019-02-22T16:18:21.597Z,8.97
2019-02-22T16:20:53.497Z,8.17
2019-02-22T16:23:28.409Z,9.90
2019-02-22T16:25:59.019Z,8.50
2019-02-22T16:28:30.159Z,8.73
2019-02-22T16:31:00.820Z,8.40
2019-02-22T16:33:31.707Z,8.43
2019-02-22T16:36:02.432Z,8.77
2019-02-22T16:38:34.985Z,9.13
2019-02-22T16:41:05.703Z,8.67
2019-02-22T16:43:36.271Z,9.07
2019-02-22T16:46:06.866Z,8.43
2019-02-22T16:48:37.519Z,8.60
2019-02-22T16:51:08.147Z,8.83
2019-02-22T16:53:41.285Z,8.43
2019-02-22T16:56:17.345Z,9.20
2019-02-22T16:58:48.504Z,8.83
2019-02-22T17:01:19.335Z,10.47
2019-02-22T17:03:51.639Z,9.30
2019-02-22T17:06:27.612Z,9.63
2019-02-22T17:08:58.349Z,9.20
2019-02-22T17:11:29.086Z,10.07
2019-02-22T17:14:01.108Z,9.20
2019-02-22T17:16:31.734Z,9.33
2019-02-22T17:19:02.370Z,8.57
2019-02-22T17:21:32.955Z,8.93
2019-02-22T17:24:06.109Z,8.70
2019-02-22T17:26:36.769Z,9.13
2019-02-22T17:29:08.753Z,9.23
2019-02-22T17:31:39.360Z,9.20
2019-02-22T17:34:11.549Z,9.63
2019-02-22T17:36:42.408Z,8.93
2019-02-22T17:39:14.069Z,9.53
2019-02-22T17:41:44.675Z,9.70
2019-02-22T17:44:15.308Z,9.13
2019-02-22T17:46:57.382Z,9.40
2019-02-22T17:49:20.024Z,9.57
2019-02-22T17:51:52.405Z,11.33
2019-02-22T17:54:23.168Z,12.53
2019-02-22T17:56:55.134Z,12.03
2019-02-22T17:59:25.797Z,12.57
2019-02-22T18:01:56.497Z,12.47
2019-02-22T18:04:27.208Z,13.27
2019-02-22T18:06:57.798Z,16.70
2019-02-22T18:09:29.892Z,16.93
2019-02-22T18:12:01.639Z,14.47
2019-02-22T18:14:33.406Z,12.27
2019-02-22T18:17:08.760Z,12.37
2019-02-22T18:19:39.803Z,10.90
2019-02-22T18:22:10.474Z,13.97
2019-02-22T18:24:42.422Z,11.87
2019-02-22T18:27:13.109Z,11.97
2019-02-22T18:29:43.778Z,10.73
2019-02-22T18:32:16.449Z,11.27
2019-02-22T18:34:47.222Z,10.70
2019-02-22T18:37:18.021Z,10.87
2019-02-22T18:39:49.731Z,11.37
2019-02-22T18:42:20.584Z,11.60
2019-02-22T18:44:52.498Z,11.97
2019-02-22T18:47:23.092Z,10.70
2019-02-22T18:49:53.709Z,12.43
2019-02-22T18:52:24.357Z,12.23
2019-02-22T18:54:54.925Z,12.27
2019-02-22T18:57:25.661Z,11.53
2019-02-22T18:59:56.457Z,11.87
2019-02-22T19:02:28.844Z,11.83
2019-02-22T19:04:59.482Z,11.33
2019-02-22T19:07:30.229Z,12.90
2019-02-22T19:10:01.889Z,11.50
2019-02-22T19:12:32.523Z,12.07
2019-02-22T19:15:03.090Z,11.67
2019-02-22T19:17:34.872Z,11.60
2019-02-22T19:20:08.274Z,11.47
2019-02-22T19:22:39.316Z,15.50
2019-02-22T19:25:10.578Z,15.07
2019-02-22T19:27:41.172Z,14.40
2019-02-22T19:30:16.869Z,14.87
2019-02-22T19:32:47.562Z,14.40
2019-02-22T19:35:19.486Z,13.57
2019-02-22T19:37:50.481Z,13.17
2019-02-22T19:40:22.744Z,13.40
2019-02-22T19:42:54.088Z,12.70
2019-02-22T19:45:24.653Z,13.27
2019-02-22T19:47:57.471Z,13.07
2019-02-22T19:50:28.222Z,12.73
2019-02-22T19:52:58.868Z,12.47
2019-02-22T19:55:30.021Z,12.10
2019-02-22T19:58:02.548Z,12.00
2019-02-22T20:00:33.348Z,12.23
2019-02-22T20:03:03.934Z,12.60
2019-02-22T20:05:34.595Z,12.40
2019-02-22T20:08:06.376Z,12.97
2019-02-22T20:10:37.298Z,11.60
2019-02-22T20:13:08.452Z,11.50
2019-02-22T20:15:40.161Z,9.23
2019-02-22T20:18:10.771Z,9.83
2019-02-22T20:20:41.469Z,10.87
2019-02-22T20:23:12.149Z,9.83
2019-02-22T20:25:42.773Z,9.13
2019-02-22T20:28:15.860Z,11.60
2019-02-22T20:30:46.457Z,9.53
2019-02-22T20:33:17.177Z,10.17
2019-02-22T20:35:47.903Z,11.97
2019-02-22T20:38:18.475Z,8.13
2019-02-22T20:40:50.118Z,9.93
2019-02-22T20:43:20.677Z,8.53
2019-02-22T20:45:51.364Z,9.30
2019-02-22T20:48:22.000Z,7.23
2019-02-22T20:50:52.665Z,9.43
2019-02-22T20:53:25.098Z,8.37
2019-02-22T20:55:55.680Z,8.90
2019-02-22T20:58:26.344Z,7.67
2019-02-22T21:00:58.764Z,7.30
2019-02-22T21:03:29.309Z,8.80
2019-02-22T21:06:00.018Z,8.10
2019-02-22T21:08:30.605Z,10.33
2019-02-22T21:11:01.200Z,7.47
2019-02-22T21:13:31.762Z,9.13
2019-02-22T21:16:02.367Z,9.10
2019-02-22T21:18:33.088Z,8.37
2019-02-22T21:21:04.739Z,9.37
2019-02-22T21:23:35.374Z,9.27
2019-02-22T21:26:07.499Z,8.17
2019-02-22T21:28:38.209Z,7.73
2019-02-22T21:31:08.896Z,8.37
2019-02-22T21:33:39.559Z,10.47
2019-02-22T21:36:10.103Z,9.10
2019-02-22T21:38:42.831Z,10.27
2019-02-22T21:41:16.362Z,10.63
2019-02-22T21:43:47.172Z,9.57
2019-02-22T21:46:17.739Z,10.40
2019-02-22T21:48:48.361Z,9.23
2019-02-22T21:51:18.907Z,8.33
2019-02-22T21:53:49.594Z,9.63
2019-02-22T21:56:20.270Z,7.87
2019-02-22T21:58:50.894Z,9.90
2019-02-22T22:01:21.526Z,8.53
2019-02-22T22:03:52.201Z,9.63
2019-02-22T22:06:22.736Z,8.30
2019-02-22T22:08:55.427Z,8.00
2019-02-22T22:11:25.761Z,7.03
2019-02-22T22:13:58.836Z,7.23
2019-02-22T22:16:29.474Z,9.10
2019-02-22T22:19:00.046Z,8.00
2019-02-22T22:21:30.605Z,7.73
2019-02-22T22:24:02.995Z,7.63
2019-02-22T22:26:35.368Z,7.93
2019-02-22T22:29:05.932Z,7.27
2019-02-22T22:31:36.522Z,9.40
2019-02-22T22:34:07.138Z,7.27
2019-02-22T22:36:39.298Z,7.73
2019-02-22T22:39:11.514Z,8.10
2019-02-22T22:41:42.201Z,7.77
2019-02-22T22:44:12.868Z,8.63
2019-02-22T22:46:43.646Z,8.23
2019-02-22T22:49:14.318Z,7.90
2019-02-22T22:51:45.019Z,7.10
2019-02-22T22:54:15.615Z,7.83
2019-02-22T22:56:46.183Z,7.87
2019-02-22T22:59:16.840Z,7.60
2019-02-22T23:01:47.731Z,10.87
2019-02-22T23:04:18.298Z,9.40
2019-02-22T23:06:50.341Z,7.03
2019-02-22T23:09:23.183Z,8.60
2019-02-22T23:11:53.956Z,8.53
2019-02-22T23:14:24.543Z,11.33
2019-02-22T23:16:55.139Z,10.07
2019-02-22T23:19:28.613Z,9.30
2019-02-22T23:22:00.474Z,10.17
2019-02-22T23:24:32.244Z,9.10
2019-02-22T23:27:03.988Z,8.57
2019-02-22T23:29:34.653Z,7.70
2019-02-22T23:32:05.262Z,9.63
2019-02-22T23:34:35.898Z,9.70
2019-02-22T23:37:06.519Z,8.20
2019-02-22T23:39:37.221Z,9.07
2019-02-22T23:42:07.908Z,7.87
2019-02-22T23:44:38.639Z,8.80
2019-02-22T23:47:09.229Z,8.47
2019-02-22T23:49:39.974Z,8.50
2019-02-22T23:52:10.531Z,7.97
2019-02-22T23:54:42.580Z,9.43
2019-02-22T23:57:15.788Z,9.93
2019-02-22T23:59:47.471Z,7.60
